Alice International Airport Alice US
ICAO: KALI
IATA: ALI
Category: Medium
Scheduled Services: No

Elevation: 178 ft
TransAlt. 18000 ft.

Airport Communications:
KINGSVILLE APP:119.9
ASOS:119.225
KINGSVILLE DEP:119.9
SAN ANGELO RDO:122.6
CTAF/UNICOM:123

KALI Zoom In..

If you have problems with the map follow the link
https://www.worldairports.se/pages/airport.php?
ICAO=KALI

Runways:

(A) RW 13 length 5997 ft width 100 ft
LOC 109.30 / hdg 128

(B) RW 17 length 4490 ft width 100 ft
LOC 109.30 / hdg 173

(C) RW 31 length 5997 ft width 100 ft
LOC 109.30 / hdg 308

(D) RW 35 length 4490 ft width 100 ft
LOC 109.30 / hdg 353

Location; KALI
Day. 18 / Time. 12.00 Zulu
* Altimeter: 30.08
* Temperature: 21° c. 69.8°f.
* Wind from: 100° Speed 04 kn.
Dewpoint: 19° c.
Visibility: 3 Statute Miles.
Clouds: Broken 400 ft.
Clouds: Overcast 900 ft.
Conditions: Mist.

KALI 181200Z AUTO 10004KT 3SM BR BKN004 OVC009 21/19 A3008 RMK AO2 CIG 002V007 T02110194


Wind From 100°
Speed 04 kn.

 
 
jpsmedia worldairports.se 2020   terms of use